sensor_id;sensor_type;location;lat;lon;timestamp;P1;durP1;ratioP1;P2;durP2;ratioP2
24557;SDS011;12726;49.148;8.582;2023-06-14T00:01:26;3.22;;;2.72;;
24557;SDS011;12726;49.148;8.582;2023-06-14T00:04:12;5.72;;;3.13;;
24557;SDS011;12726;49.148;8.582;2023-06-14T00:07:00;5.22;;;3.30;;
24557;SDS011;12726;49.148;8.582;2023-06-14T00:09:47;4.95;;;3.10;;
24557;SDS011;12726;49.148;8.582;2023-06-14T00:12:32;4.68;;;3.25;;
24557;SDS011;12726;49.148;8.582;2023-06-14T00:15:17;5.38;;;3.20;;
24557;SDS011;12726;49.148;8.582;2023-06-14T00:18:03;6.80;;;3.38;;
24557;SDS011;12726;49.148;8.582;2023-06-14T00:20:49;5.68;;;3.30;;
24557;SDS011;12726;49.148;8.582;2023-06-14T00:23:35;4.13;;;3.05;;
24557;SDS011;12726;49.148;8.582;2023-06-14T00:26:22;4.68;;;3.33;;
24557;SDS011;12726;49.148;8.582;2023-06-14T00:29:07;5.53;;;3.13;;
24557;SDS011;12726;49.148;8.582;2023-06-14T00:31:53;5.10;;;3.00;;
24557;SDS011;12726;49.148;8.582;2023-06-14T00:34:38;5.30;;;3.03;;
24557;SDS011;12726;49.148;8.582;2023-06-14T00:37:23;5.57;;;3.30;;
24557;SDS011;12726;49.148;8.582;2023-06-14T00:40:09;6.15;;;3.20;;
24557;SDS011;12726;49.148;8.582;2023-06-14T00:42:56;5.28;;;3.30;;
24557;SDS011;12726;49.148;8.582;2023-06-14T00:45:41;4.43;;;3.30;;
24557;SDS011;12726;49.148;8.582;2023-06-14T00:48:27;3.97;;;3.05;;
24557;SDS011;12726;49.148;8.582;2023-06-14T00:51:13;3.90;;;2.92;;
24557;SDS011;12726;49.148;8.582;2023-06-14T00:53:59;4.95;;;2.92;;
24557;SDS011;12726;49.148;8.582;2023-06-14T00:56:44;5.68;;;3.13;;
24557;SDS011;12726;49.148;8.582;2023-06-14T00:59:31;6.43;;;3.50;;
24557;SDS011;12726;49.148;8.582;2023-06-14T01:02:17;4.13;;;3.15;;
24557;SDS011;12726;49.148;8.582;2023-06-14T01:05:02;5.43;;;3.28;;
24557;SDS011;12726;49.148;8.582;2023-06-14T01:07:54;5.05;;;2.80;;
24557;SDS011;12726;49.148;8.582;2023-06-14T01:10:51;4.97;;;3.25;;
24557;SDS011;12726;49.148;8.582;2023-06-14T01:13:42;5.40;;;3.38;;
24557;SDS011;12726;49.148;8.582;2023-06-14T01:16:32;5.30;;;3.17;;
24557;SDS011;12726;49.148;8.582;2023-06-14T01:19:20;7.38;;;3.17;;
24557;SDS011;12726;49.148;8.582;2023-06-14T01:22:09;4.30;;;3.10;;
24557;SDS011;12726;49.148;8.582;2023-06-14T01:24:56;3.80;;;3.10;;
24557;SDS011;12726;49.148;8.582;2023-06-14T01:27:41;6.18;;;3.30;;
24557;SDS011;12726;49.148;8.582;2023-06-14T01:30:27;5.82;;;3.42;;
24557;SDS011;12726;49.148;8.582;2023-06-14T01:33:14;4.72;;;2.90;;
24557;SDS011;12726;49.148;8.582;2023-06-14T01:36:01;5.10;;;3.05;;
24557;SDS011;12726;49.148;8.582;2023-06-14T01:38:47;5.43;;;3.13;;
24557;SDS011;12726;49.148;8.582;2023-06-14T01:41:36;4.43;;;2.83;;
24557;SDS011;12726;49.148;8.582;2023-06-14T01:44:22;3.88;;;2.72;;
24557;SDS011;12726;49.148;8.582;2023-06-14T01:47:08;5.90;;;3.42;;
24557;SDS011;12726;49.148;8.582;2023-06-14T01:49:54;5.95;;;3.08;;
24557;SDS011;12726;49.148;8.582;2023-06-14T01:52:39;4.93;;;2.83;;
24557;SDS011;12726;49.148;8.582;2023-06-14T01:55:24;5.15;;;2.85;;
24557;SDS011;12726;49.148;8.582;2023-06-14T01:58:11;4.90;;;3.22;;
24557;SDS011;12726;49.148;8.582;2023-06-14T02:00:57;6.68;;;3.13;;
24557;SDS011;12726;49.148;8.582;2023-06-14T02:03:44;5.90;;;3.53;;
24557;SDS011;12726;49.148;8.582;2023-06-14T02:06:30;4.30;;;3.30;;
24557;SDS011;12726;49.148;8.582;2023-06-14T02:09:15;4.13;;;3.20;;
24557;SDS011;12726;49.148;8.582;2023-06-14T02:12:01;4.78;;;3.28;;
24557;SDS011;12726;49.148;8.582;2023-06-14T02:14:47;4.30;;;3.08;;
24557;SDS011;12726;49.148;8.582;2023-06-14T02:17:33;6.68;;;3.47;;
24557;SDS011;12726;49.148;8.582;2023-06-14T02:20:18;4.30;;;2.75;;
24557;SDS011;12726;49.148;8.582;2023-06-14T02:23:03;5.95;;;3.03;;
24557;SDS011;12726;49.148;8.582;2023-06-14T02:25:49;5.53;;;3.33;;
24557;SDS011;12726;49.148;8.582;2023-06-14T02:28:34;7.57;;;3.75;;
24557;SDS011;12726;49.148;8.582;2023-06-14T02:31:21;4.97;;;3.03;;
24557;SDS011;12726;49.148;8.582;2023-06-14T02:34:06;3.42;;;2.47;;
24557;SDS011;12726;49.148;8.582;2023-06-14T02:36:53;5.70;;;3.13;;
24557;SDS011;12726;49.148;8.582;2023-06-14T02:39:38;5.28;;;3.83;;
24557;SDS011;12726;49.148;8.582;2023-06-14T02:42:24;6.20;;;3.30;;
24557;SDS011;12726;49.148;8.582;2023-06-14T02:45:09;5.95;;;3.20;;
24557;SDS011;12726;49.148;8.582;2023-06-14T02:47:56;5.30;;;3.67;;
24557;SDS011;12726;49.148;8.582;2023-06-14T02:50:41;7.07;;;3.88;;
24557;SDS011;12726;49.148;8.582;2023-06-14T02:53:26;5.60;;;4.05;;
24557;SDS011;12726;49.148;8.582;2023-06-14T02:56:12;5.60;;;3.85;;
24557;SDS011;12726;49.148;8.582;2023-06-14T02:58:57;6.75;;;3.85;;
24557;SDS011;12726;49.148;8.582;2023-06-14T03:01:44;4.60;;;3.17;;
24557;SDS011;12726;49.148;8.582;2023-06-14T03:04:30;4.53;;;3.42;;
24557;SDS011;12726;49.148;8.582;2023-06-14T03:07:18;6.82;;;3.58;;
24557;SDS011;12726;49.148;8.582;2023-06-14T03:10:04;3.83;;;3.03;;
24557;SDS011;12726;49.148;8.582;2023-06-14T03:12:51;7.80;;;3.42;;
24557;SDS011;12726;49.148;8.582;2023-06-14T03:15:36;6.22;;;3.45;;
24557;SDS011;12726;49.148;8.582;2023-06-14T03:18:22;7.00;;;3.60;;
24557;SDS011;12726;49.148;8.582;2023-06-14T03:21:09;6.05;;;4.28;;
24557;SDS011;12726;49.148;8.582;2023-06-14T03:23:55;9.82;;;3.95;;
24557;SDS011;12726;49.148;8.582;2023-06-14T03:26:40;6.05;;;4.18;;
24557;SDS011;12726;49.148;8.582;2023-06-14T03:29:25;4.93;;;3.75;;
24557;SDS011;12726;49.148;8.582;2023-06-14T03:32:11;7.15;;;3.45;;
24557;SDS011;12726;49.148;8.582;2023-06-14T03:34:56;6.97;;;3.60;;
24557;SDS011;12726;49.148;8.582;2023-06-14T03:37:43;7.57;;;3.80;;
24557;SDS011;12726;49.148;8.582;2023-06-14T03:40:28;6.20;;;3.80;;
24557;SDS011;12726;49.148;8.582;2023-06-14T03:43:15;5.60;;;4.28;;
24557;SDS011;12726;49.148;8.582;2023-06-14T03:46:00;6.55;;;3.92;;
24557;SDS011;12726;49.148;8.582;2023-06-14T03:48:45;5.85;;;3.83;;
24557;SDS011;12726;49.148;8.582;2023-06-14T03:51:30;4.38;;;3.33;;
24557;SDS011;12726;49.148;8.582;2023-06-14T03:54:17;5.40;;;3.00;;
24557;SDS011;12726;49.148;8.582;2023-06-14T03:57:02;7.38;;;3.88;;
24557;SDS011;12726;49.148;8.582;2023-06-14T03:59:48;6.90;;;3.58;;
24557;SDS011;12726;49.148;8.582;2023-06-14T04:02:33;7.53;;;4.15;;
24557;SDS011;12726;49.148;8.582;2023-06-14T04:05:19;8.07;;;4.22;;
24557;SDS011;12726;49.148;8.582;2023-06-14T04:08:05;4.65;;;3.63;;
24557;SDS011;12726;49.148;8.582;2023-06-14T04:10:54;6.30;;;3.67;;
24557;SDS011;12726;49.148;8.582;2023-06-14T04:13:39;6.90;;;3.88;;
24557;SDS011;12726;49.148;8.582;2023-06-14T04:16:25;4.82;;;3.38;;
24557;SDS011;12726;49.148;8.582;2023-06-14T04:19:10;5.05;;;4.00;;
24557;SDS011;12726;49.148;8.582;2023-06-14T04:21:55;5.90;;;4.35;;
24557;SDS011;12726;49.148;8.582;2023-06-14T04:24:42;6.25;;;4.50;;
24557;SDS011;12726;49.148;8.582;2023-06-14T04:27:30;6.45;;;4.13;;
24557;SDS011;12726;49.148;8.582;2023-06-14T04:30:18;5.32;;;3.97;;
24557;SDS011;12726;49.148;8.582;2023-06-14T04:33:03;6.93;;;3.97;;
24557;SDS011;12726;49.148;8.582;2023-06-14T04:35:49;7.43;;;3.65;;
24557;SDS011;12726;49.148;8.582;2023-06-14T04:38:37;5.40;;;3.75;;
24557;SDS011;12726;49.148;8.582;2023-06-14T04:41:23;4.60;;;3.33;;
24557;SDS011;12726;49.148;8.582;2023-06-14T04:44:15;6.13;;;4.00;;
24557;SDS011;12726;49.148;8.582;2023-06-14T04:47:02;6.30;;;4.18;;
24557;SDS011;12726;49.148;8.582;2023-06-14T04:49:48;6.70;;;3.65;;
24557;SDS011;12726;49.148;8.582;2023-06-14T04:52:33;6.57;;;3.60;;
24557;SDS011;12726;49.148;8.582;2023-06-14T04:55:19;9.57;;;4.43;;
24557;SDS011;12726;49.148;8.582;2023-06-14T04:58:04;7.30;;;3.75;;
24557;SDS011;12726;49.148;8.582;2023-06-14T05:00:51;6.72;;;3.90;;
24557;SDS011;12726;49.148;8.582;2023-06-14T05:03:37;7.18;;;4.15;;
24557;SDS011;12726;49.148;8.582;2023-06-14T05:06:22;8.27;;;4.25;;
24557;SDS011;12726;49.148;8.582;2023-06-14T05:09:07;8.63;;;4.07;;
24557;SDS011;12726;49.148;8.582;2023-06-14T05:11:53;8.45;;;4.57;;
24557;SDS011;12726;49.148;8.582;2023-06-14T05:14:38;6.75;;;4.07;;
24557;SDS011;12726;49.148;8.582;2023-06-14T05:17:25;4.47;;;3.63;;
24557;SDS011;12726;49.148;8.582;2023-06-14T05:20:11;8.60;;;3.92;;
24557;SDS011;12726;49.148;8.582;2023-06-14T05:22:56;5.75;;;4.20;;
24557;SDS011;12726;49.148;8.582;2023-06-14T05:25:42;6.15;;;3.83;;
24557;SDS011;12726;49.148;8.582;2023-06-14T05:28:28;7.97;;;3.60;;
24557;SDS011;12726;49.148;8.582;2023-06-14T05:31:14;6.35;;;4.13;;
24557;SDS011;12726;49.148;8.582;2023-06-14T05:34:01;5.97;;;4.15;;
24557;SDS011;12726;49.148;8.582;2023-06-14T05:36:46;8.10;;;4.07;;
24557;SDS011;12726;49.148;8.582;2023-06-14T05:39:31;7.45;;;4.30;;
24557;SDS011;12726;49.148;8.582;2023-06-14T05:42:17;5.32;;;4.10;;
24557;SDS011;12726;49.148;8.582;2023-06-14T05:45:02;6.50;;;4.22;;
24557;SDS011;12726;49.148;8.582;2023-06-14T05:47:48;5.28;;;3.90;;
24557;SDS011;12726;49.148;8.582;2023-06-14T05:50:35;5.95;;;4.32;;
24557;SDS011;12726;49.148;8.582;2023-06-14T05:53:20;10.93;;;4.28;;
24557;SDS011;12726;49.148;8.582;2023-06-14T05:56:05;7.90;;;4.05;;
24557;SDS011;12726;49.148;8.582;2023-06-14T05:58:51;8.15;;;3.88;;
24557;SDS011;12726;49.148;8.582;2023-06-14T06:01:36;8.18;;;4.00;;
24557;SDS011;12726;49.148;8.582;2023-06-14T06:04:23;7.82;;;3.88;;
24557;SDS011;12726;49.148;8.582;2023-06-14T06:07:10;7.65;;;4.43;;
24557;SDS011;12726;49.148;8.582;2023-06-14T06:09:56;6.72;;;3.90;;
24557;SDS011;12726;49.148;8.582;2023-06-14T06:12:41;8.38;;;4.10;;
24557;SDS011;12726;49.148;8.582;2023-06-14T06:15:27;5.15;;;3.85;;
24557;SDS011;12726;49.148;8.582;2023-06-14T06:18:12;6.95;;;4.28;;
24557;SDS011;12726;49.148;8.582;2023-06-14T06:20:57;9.25;;;4.03;;
24557;SDS011;12726;49.148;8.582;2023-06-14T06:23:44;7.97;;;3.80;;
24557;SDS011;12726;49.148;8.582;2023-06-14T06:26:30;8.43;;;4.35;;
24557;SDS011;12726;49.148;8.582;2023-06-14T06:29:15;8.38;;;3.83;;
24557;SDS011;12726;49.148;8.582;2023-06-14T06:32:00;8.10;;;3.97;;
24557;SDS011;12726;49.148;8.582;2023-06-14T06:34:46;5.43;;;3.53;;
24557;SDS011;12726;49.148;8.582;2023-06-14T06:37:32;7.75;;;5.00;;
24557;SDS011;12726;49.148;8.582;2023-06-14T06:40:18;4.60;;;3.72;;
24557;SDS011;12726;49.148;8.582;2023-06-14T06:43:04;5.60;;;3.47;;
24557;SDS011;12726;49.148;8.582;2023-06-14T06:45:49;9.25;;;3.80;;
24557;SDS011;12726;49.148;8.582;2023-06-14T06:48:34;6.13;;;3.47;;
24557;SDS011;12726;49.148;8.582;2023-06-14T06:51:20;8.45;;;4.10;;
24557;SDS011;12726;49.148;8.582;2023-06-14T06:54:05;6.13;;;3.90;;
24557;SDS011;12726;49.148;8.582;2023-06-14T06:56:52;4.05;;;3.47;;
24557;SDS011;12726;49.148;8.582;2023-06-14T06:59:38;6.13;;;3.45;;
24557;SDS011;12726;49.148;8.582;2023-06-14T07:02:23;7.47;;;3.97;;
24557;SDS011;12726;49.148;8.582;2023-06-14T07:05:08;5.43;;;3.67;;
24557;SDS011;12726;49.148;8.582;2023-06-14T07:07:54;5.55;;;3.33;;
24557;SDS011;12726;49.148;8.582;2023-06-14T07:10:39;8.52;;;3.50;;
24557;SDS011;12726;49.148;8.582;2023-06-14T07:13:26;8.95;;;3.88;;
24557;SDS011;12726;49.148;8.582;2023-06-14T07:16:11;5.70;;;3.58;;
24557;SDS011;12726;49.148;8.582;2023-06-14T07:18:56;5.55;;;3.72;;
24557;SDS011;12726;49.148;8.582;2023-06-14T07:21:41;5.57;;;3.28;;
24557;SDS011;12726;49.148;8.582;2023-06-14T07:24:27;8.00;;;3.35;;
24557;SDS011;12726;49.148;8.582;2023-06-14T07:27:12;7.32;;;3.60;;
24557;SDS011;12726;49.148;8.582;2023-06-14T07:29:59;7.97;;;4.07;;
24557;SDS011;12726;49.148;8.582;2023-06-14T07:32:45;5.88;;;3.70;;
24557;SDS011;12726;49.148;8.582;2023-06-14T07:35:30;6.32;;;4.03;;
24557;SDS011;12726;49.148;8.582;2023-06-14T07:38:15;4.38;;;3.42;;
24557;SDS011;12726;49.148;8.582;2023-06-14T07:41:01;4.70;;;3.17;;
24557;SDS011;12726;49.148;8.582;2023-06-14T07:43:46;5.15;;;3.45;;
24557;SDS011;12726;49.148;8.582;2023-06-14T07:46:33;4.47;;;3.50;;
24557;SDS011;12726;49.148;8.582;2023-06-14T07:49:19;5.05;;;3.40;;
24557;SDS011;12726;49.148;8.582;2023-06-14T07:52:04;5.50;;;3.40;;
24557;SDS011;12726;49.148;8.582;2023-06-14T07:54:50;6.70;;;3.63;;
24557;SDS011;12726;49.148;8.582;2023-06-14T07:57:35;4.75;;;2.95;;
24557;SDS011;12726;49.148;8.582;2023-06-14T08:00:21;8.57;;;3.80;;
24557;SDS011;12726;49.148;8.582;2023-06-14T08:03:07;7.38;;;3.45;;
24557;SDS011;12726;49.148;8.582;2023-06-14T08:05:53;9.30;;;3.72;;
24557;SDS011;12726;49.148;8.582;2023-06-14T08:08:39;6.65;;;3.53;;
24557;SDS011;12726;49.148;8.582;2023-06-14T08:11:24;8.45;;;3.47;;
24557;SDS011;12726;49.148;8.582;2023-06-14T08:14:09;5.65;;;3.72;;
24557;SDS011;12726;49.148;8.582;2023-06-14T08:16:55;5.57;;;3.45;;
24557;SDS011;12726;49.148;8.582;2023-06-14T08:19:41;4.97;;;3.20;;
24557;SDS011;12726;49.148;8.582;2023-06-14T08:22:26;5.60;;;3.20;;
24557;SDS011;12726;49.148;8.582;2023-06-14T08:25:15;4.82;;;3.60;;
24557;SDS011;12726;49.148;8.582;2023-06-14T08:28:01;5.80;;;3.50;;
24557;SDS011;12726;49.148;8.582;2023-06-14T08:30:47;7.32;;;3.58;;
24557;SDS011;12726;49.148;8.582;2023-06-14T08:33:32;10.70;;;3.53;;
24557;SDS011;12726;49.148;8.582;2023-06-14T08:36:19;5.90;;;3.45;;
24557;SDS011;12726;49.148;8.582;2023-06-14T08:39:06;7.40;;;3.75;;
24557;SDS011;12726;49.148;8.582;2023-06-14T08:41:52;4.38;;;3.58;;
24557;SDS011;12726;49.148;8.582;2023-06-14T08:44:39;6.85;;;3.60;;
24557;SDS011;12726;49.148;8.582;2023-06-14T08:47:26;4.90;;;3.22;;
24557;SDS011;12726;49.148;8.582;2023-06-14T08:50:12;5.13;;;3.28;;
24557;SDS011;12726;49.148;8.582;2023-06-14T08:53:01;6.43;;;3.53;;
24557;SDS011;12726;49.148;8.582;2023-06-14T08:55:47;4.43;;;3.22;;
24557;SDS011;12726;49.148;8.582;2023-06-14T08:58:33;7.80;;;3.40;;
24557;SDS011;12726;49.148;8.582;2023-06-14T09:01:20;7.28;;;3.47;;
24557;SDS011;12726;49.148;8.582;2023-06-14T09:04:05;4.80;;;3.28;;
24557;SDS011;12726;49.148;8.582;2023-06-14T09:06:51;6.63;;;3.10;;
24557;SDS011;12726;49.148;8.582;2023-06-14T09:09:40;5.13;;;3.75;;
24557;SDS011;12726;49.148;8.582;2023-06-14T09:12:26;3.92;;;3.45;;
24557;SDS011;12726;49.148;8.582;2023-06-14T09:15:11;4.80;;;3.35;;
24557;SDS011;12726;49.148;8.582;2023-06-14T09:17:58;5.72;;;3.10;;
24557;SDS011;12726;49.148;8.582;2023-06-14T09:20:46;6.88;;;3.30;;
24557;SDS011;12726;49.148;8.582;2023-06-14T09:23:33;5.55;;;3.33;;
24557;SDS011;12726;49.148;8.582;2023-06-14T09:26:22;8.05;;;3.25;;
24557;SDS011;12726;49.148;8.582;2023-06-14T09:29:08;7.90;;;3.88;;
24557;SDS011;12726;49.148;8.582;2023-06-14T09:31:54;6.47;;;3.70;;
24557;SDS011;12726;49.148;8.582;2023-06-14T09:34:39;4.30;;;3.50;;
24557;SDS011;12726;49.148;8.582;2023-06-14T09:37:28;3.88;;;2.92;;
24557;SDS011;12726;49.148;8.582;2023-06-14T09:40:14;8.70;;;3.55;;
24557;SDS011;12726;49.148;8.582;2023-06-14T09:43:07;4.85;;;3.20;;
24557;SDS011;12726;49.148;8.582;2023-06-14T09:45:54;5.82;;;3.00;;
24557;SDS011;12726;49.148;8.582;2023-06-14T09:48:39;5.38;;;3.10;;
24557;SDS011;12726;49.148;8.582;2023-06-14T09:51:26;9.18;;;3.13;;
24557;SDS011;12726;49.148;8.582;2023-06-14T09:54:14;6.00;;;2.97;;
24557;SDS011;12726;49.148;8.582;2023-06-14T09:57:01;10.63;;;3.20;;
24557;SDS011;12726;49.148;8.582;2023-06-14T09:59:57;6.20;;;3.42;;
24557;SDS011;12726;49.148;8.582;2023-06-14T10:02:43;5.75;;;3.40;;
24557;SDS011;12726;49.148;8.582;2023-06-14T10:05:34;9.50;;;2.95;;
24557;SDS011;12726;49.148;8.582;2023-06-14T10:08:23;3.70;;;2.83;;
24557;SDS011;12726;49.148;8.582;2023-06-14T10:11:10;8.70;;;3.55;;
24557;SDS011;12726;49.148;8.582;2023-06-14T10:13:57;6.70;;;3.40;;
24557;SDS011;12726;49.148;8.582;2023-06-14T10:16:47;6.63;;;2.92;;
24557;SDS011;12726;49.148;8.582;2023-06-14T10:19:41;3.38;;;3.08;;
24557;SDS011;12726;49.148;8.582;2023-06-14T10:22:32;3.67;;;2.72;;
24557;SDS011;12726;49.148;8.582;2023-06-14T10:25:28;6.28;;;3.00;;
24557;SDS011;12726;49.148;8.582;2023-06-14T10:28:15;4.63;;;3.30;;
24557;SDS011;12726;49.148;8.582;2023-06-14T10:31:02;4.35;;;3.10;;
24557;SDS011;12726;49.148;8.582;2023-06-14T10:33:50;4.70;;;3.15;;
24557;SDS011;12726;49.148;8.582;2023-06-14T10:36:41;6.32;;;3.50;;
24557;SDS011;12726;49.148;8.582;2023-06-14T10:39:27;6.45;;;3.40;;
24557;SDS011;12726;49.148;8.582;2023-06-14T10:42:12;4.35;;;3.45;;
24557;SDS011;12726;49.148;8.582;2023-06-14T10:45:00;5.90;;;3.15;;
24557;SDS011;12726;49.148;8.582;2023-06-14T10:47:45;5.32;;;3.33;;
24557;SDS011;12726;49.148;8.582;2023-06-14T10:50:37;9.05;;;3.28;;
24557;SDS011;12726;49.148;8.582;2023-06-14T10:56:23;6.18;;;3.30;;
24557;SDS011;12726;49.148;8.582;2023-06-14T10:59:09;8.02;;;3.53;;
24557;SDS011;12726;49.148;8.582;2023-06-14T11:01:57;5.90;;;3.50;;
24557;SDS011;12726;49.148;8.582;2023-06-14T11:04:50;5.75;;;3.60;;
24557;SDS011;12726;49.148;8.582;2023-06-14T11:07:39;6.50;;;3.22;;
24557;SDS011;12726;49.148;8.582;2023-06-14T11:10:35;3.42;;;3.13;;
24557;SDS011;12726;49.148;8.582;2023-06-14T11:13:21;5.78;;;3.25;;
24557;SDS011;12726;49.148;8.582;2023-06-14T11:16:10;5.57;;;3.10;;
24557;SDS011;12726;49.148;8.582;2023-06-14T11:18:56;3.83;;;3.42;;
24557;SDS011;12726;49.148;8.582;2023-06-14T11:21:41;5.50;;;3.15;;
24557;SDS011;12726;49.148;8.582;2023-06-14T11:24:28;5.53;;;3.90;;
24557;SDS011;12726;49.148;8.582;2023-06-14T11:27:14;5.32;;;3.47;;
24557;SDS011;12726;49.148;8.582;2023-06-14T11:29:59;5.05;;;3.33;;
24557;SDS011;12726;49.148;8.582;2023-06-14T11:32:46;4.53;;;3.05;;
24557;SDS011;12726;49.148;8.582;2023-06-14T11:35:33;6.63;;;3.45;;
24557;SDS011;12726;49.148;8.582;2023-06-14T11:38:19;5.95;;;3.10;;
24557;SDS011;12726;49.148;8.582;2023-06-14T11:41:05;4.60;;;2.90;;
24557;SDS011;12726;49.148;8.582;2023-06-14T11:43:52;3.95;;;2.92;;
24557;SDS011;12726;49.148;8.582;2023-06-14T11:46:38;5.25;;;3.30;;
24557;SDS011;12726;49.148;8.582;2023-06-14T11:49:23;5.55;;;3.08;;
24557;SDS011;12726;49.148;8.582;2023-06-14T11:52:09;3.35;;;3.03;;
24557;SDS011;12726;49.148;8.582;2023-06-14T11:54:55;7.07;;;3.13;;
24557;SDS011;12726;49.148;8.582;2023-06-14T11:57:43;4.15;;;3.20;;
24557;SDS011;12726;49.148;8.582;2023-06-14T12:00:29;3.58;;;3.08;;
24557;SDS011;12726;49.148;8.582;2023-06-14T12:03:14;6.78;;;3.33;;
24557;SDS011;12726;49.148;8.582;2023-06-14T12:06:06;4.07;;;2.95;;
24557;SDS011;12726;49.148;8.582;2023-06-14T12:08:55;5.22;;;2.88;;
24557;SDS011;12726;49.148;8.582;2023-06-14T12:11:41;3.80;;;2.90;;
24557;SDS011;12726;49.148;8.582;2023-06-14T12:14:29;4.28;;;2.80;;
24557;SDS011;12726;49.148;8.582;2023-06-14T12:17:16;6.35;;;2.90;;
24557;SDS011;12726;49.148;8.582;2023-06-14T12:20:05;3.60;;;2.63;;
24557;SDS011;12726;49.148;8.582;2023-06-14T12:22:55;5.68;;;2.55;;
24557;SDS011;12726;49.148;8.582;2023-06-14T12:25:41;3.72;;;3.03;;
24557;SDS011;12726;49.148;8.582;2023-06-14T12:28:30;3.30;;;3.00;;
24557;SDS011;12726;49.148;8.582;2023-06-14T12:31:17;9.15;;;3.13;;
24557;SDS011;12726;49.148;8.582;2023-06-14T12:34:03;3.42;;;2.60;;
24557;SDS011;12726;49.148;8.582;2023-06-14T12:36:49;5.63;;;3.05;;
24557;SDS011;12726;49.148;8.582;2023-06-14T12:39:35;5.05;;;2.80;;
24557;SDS011;12726;49.148;8.582;2023-06-14T12:42:23;5.80;;;3.08;;
24557;SDS011;12726;49.148;8.582;2023-06-14T12:45:10;3.75;;;2.80;;
24557;SDS011;12726;49.148;8.582;2023-06-14T12:47:57;4.35;;;2.72;;
24557;SDS011;12726;49.148;8.582;2023-06-14T12:50:42;3.83;;;2.95;;
24557;SDS011;12726;49.148;8.582;2023-06-14T12:53:28;4.70;;;2.65;;
24557;SDS011;12726;49.148;8.582;2023-06-14T12:56:13;4.25;;;2.90;;
24557;SDS011;12726;49.148;8.582;2023-06-14T12:58:59;3.28;;;2.65;;
24557;SDS011;12726;49.148;8.582;2023-06-14T13:01:45;7.93;;;2.65;;
24557;SDS011;12726;49.148;8.582;2023-06-14T13:04:35;5.78;;;2.90;;
24557;SDS011;12726;49.148;8.582;2023-06-14T13:07:20;4.40;;;2.70;;
24557;SDS011;12726;49.148;8.582;2023-06-14T13:10:06;4.10;;;2.70;;
24557;SDS011;12726;49.148;8.582;2023-06-14T13:12:51;2.95;;;2.60;;
24557;SDS011;12726;49.148;8.582;2023-06-14T13:15:36;6.72;;;2.95;;
24557;SDS011;12726;49.148;8.582;2023-06-14T13:18:22;3.03;;;2.08;;
24557;SDS011;12726;49.148;8.582;2023-06-14T13:21:08;5.20;;;2.90;;
24557;SDS011;12726;49.148;8.582;2023-06-14T13:23:54;3.90;;;2.40;;
24557;SDS011;12726;49.148;8.582;2023-06-14T13:26:39;4.93;;;2.22;;
24557;SDS011;12726;49.148;8.582;2023-06-14T13:29:25;3.78;;;2.92;;
24557;SDS011;12726;49.148;8.582;2023-06-14T13:32:11;4.43;;;2.80;;
24557;SDS011;12726;49.148;8.582;2023-06-14T13:34:56;4.00;;;2.58;;
24557;SDS011;12726;49.148;8.582;2023-06-14T13:37:44;4.18;;;2.22;;
24557;SDS011;12726;49.148;8.582;2023-06-14T13:40:29;2.58;;;2.30;;
24557;SDS011;12726;49.148;8.582;2023-06-14T13:43:14;3.33;;;2.55;;
24557;SDS011;12726;49.148;8.582;2023-06-14T13:45:59;4.55;;;2.67;;
24557;SDS011;12726;49.148;8.582;2023-06-14T13:48:45;3.75;;;2.55;;
24557;SDS011;12726;49.148;8.582;2023-06-14T13:51:31;5.28;;;2.90;;
24557;SDS011;12726;49.148;8.582;2023-06-14T13:54:20;3.13;;;2.75;;
24557;SDS011;12726;49.148;8.582;2023-06-14T13:57:06;4.97;;;2.28;;
24557;SDS011;12726;49.148;8.582;2023-06-14T13:59:51;6.97;;;2.63;;
24557;SDS011;12726;49.148;8.582;2023-06-14T14:02:38;4.32;;;2.83;;
24557;SDS011;12726;49.148;8.582;2023-06-14T14:05:24;3.97;;;2.70;;
24557;SDS011;12726;49.148;8.582;2023-06-14T14:08:13;3.85;;;2.72;;
24557;SDS011;12726;49.148;8.582;2023-06-14T14:11:00;4.40;;;2.58;;
24557;SDS011;12726;49.148;8.582;2023-06-14T14:13:48;4.43;;;2.72;;
24557;SDS011;12726;49.148;8.582;2023-06-14T14:16:35;4.65;;;2.47;;
24557;SDS011;12726;49.148;8.582;2023-06-14T14:19:21;4.20;;;2.60;;
24557;SDS011;12726;49.148;8.582;2023-06-14T14:22:07;3.83;;;2.92;;
24557;SDS011;12726;49.148;8.582;2023-06-14T14:24:52;4.75;;;2.33;;
24557;SDS011;12726;49.148;8.582;2023-06-14T14:27:39;5.22;;;2.38;;
24557;SDS011;12726;49.148;8.582;2023-06-14T14:30:24;4.00;;;2.78;;
24557;SDS011;12726;49.148;8.582;2023-06-14T14:33:09;9.07;;;2.97;;
24557;SDS011;12726;49.148;8.582;2023-06-14T14:35:59;3.85;;;3.03;;
24557;SDS011;12726;49.148;8.582;2023-06-14T14:38:47;6.15;;;2.90;;
24557;SDS011;12726;49.148;8.582;2023-06-14T14:41:33;3.78;;;2.47;;
24557;SDS011;12726;49.148;8.582;2023-06-14T14:44:19;4.28;;;2.67;;
24557;SDS011;12726;49.148;8.582;2023-06-14T14:47:05;5.90;;;2.80;;
24557;SDS011;12726;49.148;8.582;2023-06-14T14:49:50;3.10;;;2.58;;
24557;SDS011;12726;49.148;8.582;2023-06-14T14:52:35;4.57;;;3.17;;
24557;SDS011;12726;49.148;8.582;2023-06-14T14:55:21;3.20;;;2.90;;
24557;SDS011;12726;49.148;8.582;2023-06-14T14:58:06;3.70;;;2.55;;
24557;SDS011;12726;49.148;8.582;2023-06-14T15:00:53;5.47;;;2.75;;
24557;SDS011;12726;49.148;8.582;2023-06-14T15:03:38;5.60;;;3.10;;
24557;SDS011;12726;49.148;8.582;2023-06-14T15:06:23;6.20;;;3.00;;
24557;SDS011;12726;49.148;8.582;2023-06-14T15:09:09;3.13;;;2.42;;
24557;SDS011;12726;49.148;8.582;2023-06-14T15:11:54;6.22;;;2.75;;
24557;SDS011;12726;49.148;8.582;2023-06-14T15:14:40;3.53;;;2.78;;
24557;SDS011;12726;49.148;8.582;2023-06-14T15:17:26;3.35;;;2.38;;
24557;SDS011;12726;49.148;8.582;2023-06-14T15:20:12;3.28;;;2.65;;
24557;SDS011;12726;49.148;8.582;2023-06-14T15:22:57;5.32;;;2.58;;
24557;SDS011;12726;49.148;8.582;2023-06-14T15:25:43;6.05;;;2.63;;
24557;SDS011;12726;49.148;8.582;2023-06-14T15:28:28;6.00;;;2.92;;
24557;SDS011;12726;49.148;8.582;2023-06-14T15:31:16;3.97;;;2.80;;
24557;SDS011;12726;49.148;8.582;2023-06-14T15:34:03;4.00;;;2.83;;
24557;SDS011;12726;49.148;8.582;2023-06-14T15:36:48;5.05;;;3.30;;
24557;SDS011;12726;49.148;8.582;2023-06-14T15:39:33;6.63;;;2.75;;
24557;SDS011;12726;49.148;8.582;2023-06-14T15:42:19;3.75;;;2.80;;
24557;SDS011;12726;49.148;8.582;2023-06-14T15:45:04;4.25;;;2.65;;
24557;SDS011;12726;49.148;8.582;2023-06-14T15:47:50;4.22;;;2.20;;
24557;SDS011;12726;49.148;8.582;2023-06-14T15:50:37;5.30;;;2.53;;
24557;SDS011;12726;49.148;8.582;2023-06-14T15:53:22;4.53;;;2.88;;
24557;SDS011;12726;49.148;8.582;2023-06-14T15:56:07;3.30;;;2.85;;
24557;SDS011;12726;49.148;8.582;2023-06-14T15:58:53;3.95;;;2.35;;
24557;SDS011;12726;49.148;8.582;2023-06-14T16:01:38;4.10;;;2.28;;
24557;SDS011;12726;49.148;8.582;2023-06-14T16:04:24;5.05;;;2.53;;
24557;SDS011;12726;49.148;8.582;2023-06-14T16:07:10;3.40;;;2.63;;
24557;SDS011;12726;49.148;8.582;2023-06-14T16:09:56;3.33;;;2.63;;
24557;SDS011;12726;49.148;8.582;2023-06-14T16:12:41;4.03;;;2.60;;
24557;SDS011;12726;49.148;8.582;2023-06-14T16:15:27;5.05;;;2.95;;
24557;SDS011;12726;49.148;8.582;2023-06-14T16:18:12;4.60;;;3.05;;
24557;SDS011;12726;49.148;8.582;2023-06-14T16:20:57;6.32;;;2.92;;
24557;SDS011;12726;49.148;8.582;2023-06-14T16:23:44;5.07;;;2.70;;
24557;SDS011;12726;49.148;8.582;2023-06-14T16:26:29;4.18;;;3.00;;
24557;SDS011;12726;49.148;8.582;2023-06-14T16:29:15;4.47;;;3.03;;
24557;SDS011;12726;49.148;8.582;2023-06-14T16:32:00;3.58;;;3.10;;
24557;SDS011;12726;49.148;8.582;2023-06-14T16:34:45;4.18;;;2.88;;
24557;SDS011;12726;49.148;8.582;2023-06-14T16:37:31;5.75;;;3.03;;
24557;SDS011;12726;49.148;8.582;2023-06-14T16:40:18;4.65;;;3.00;;
24557;SDS011;12726;49.148;8.582;2023-06-14T16:43:03;3.67;;;2.42;;
24557;SDS011;12726;49.148;8.582;2023-06-14T16:45:48;6.07;;;3.03;;